createdAt,value
2018-04-17T00:01:10.629Z,3.80
2018-04-17T00:03:38.201Z,4.03
2018-04-17T00:06:05.842Z,4.80
2018-04-17T00:08:33.482Z,4.07
2018-04-17T00:11:01.079Z,3.83
2018-04-17T00:13:28.692Z,3.60
2018-04-17T00:15:56.268Z,3.30
2018-04-17T00:18:23.834Z,3.17
2018-04-17T00:20:51.441Z,3.50
2018-04-17T00:23:19.028Z,3.70
2018-04-17T00:25:46.624Z,4.47
2018-04-17T00:28:14.258Z,4.77
2018-04-17T00:30:41.851Z,2.93
2018-04-17T00:33:09.449Z,3.40
2018-04-17T00:35:37.084Z,4.27
2018-04-17T00:38:04.693Z,3.87
2018-04-17T00:40:32.283Z,4.00
2018-04-17T00:42:59.902Z,3.80
2018-04-17T00:45:27.498Z,4.50
2018-04-17T00:47:55.085Z,3.70
2018-04-17T00:50:22.709Z,3.60
2018-04-17T00:52:50.316Z,4.27
2018-04-17T00:55:17.909Z,4.77
2018-04-17T00:57:45.551Z,5.77
2018-04-17T01:00:13.267Z,3.60
2018-04-17T01:02:40.874Z,4.30
2018-04-17T01:05:08.491Z,3.90
2018-04-17T01:07:36.073Z,3.90
2018-04-17T01:10:03.704Z,6.00
2018-04-17T01:12:31.331Z,3.97
2018-04-17T01:14:58.918Z,4.50
2018-04-17T01:17:26.505Z,3.87
2018-04-17T01:19:54.137Z,6.23
2018-04-17T01:22:21.717Z,3.87
2018-04-17T01:24:49.301Z,5.00
2018-04-17T01:27:16.933Z,8.23
2018-04-17T01:29:44.529Z,6.50
2018-04-17T01:32:12.112Z,4.33
2018-04-17T01:34:39.733Z,5.67
2018-04-17T01:37:07.336Z,6.20
2018-04-17T01:39:34.915Z,4.30
2018-04-17T01:42:02.530Z,4.90
2018-04-17T01:44:30.136Z,4.43
2018-04-17T01:46:57.725Z,3.57
2018-04-17T01:49:25.397Z,4.77
2018-04-17T01:51:52.989Z,4.80
2018-04-17T01:54:20.577Z,4.57
2018-04-17T01:56:48.216Z,5.07
2018-04-17T01:59:15.797Z,4.47
2018-04-17T02:01:43.380Z,4.43
2018-04-17T02:04:11.009Z,4.47
2018-04-17T02:06:38.587Z,4.33
2018-04-17T02:09:06.218Z,5.10
2018-04-17T02:11:33.832Z,6.33
2018-04-17T02:14:01.430Z,4.80
2018-04-17T02:16:29.027Z,6.33
2018-04-17T02:18:56.649Z,5.73
2018-04-17T02:21:24.241Z,6.00
2018-04-17T02:23:51.832Z,5.27
2018-04-17T02:26:19.464Z,5.10
2018-04-17T02:28:47.052Z,4.70
2018-04-17T02:31:14.694Z,4.83
2018-04-17T02:33:42.313Z,5.90
2018-04-17T02:36:09.917Z,5.17
2018-04-17T02:38:37.499Z,4.93
2018-04-17T02:41:05.121Z,5.40
2018-04-17T02:43:32.709Z,6.67
2018-04-17T02:46:00.300Z,5.50
2018-04-17T02:48:27.939Z,5.43
2018-04-17T02:50:55.566Z,5.20
2018-04-17T02:53:23.165Z,4.90
2018-04-17T02:55:50.802Z,5.00
2018-04-17T02:58:18.400Z,5.10
2018-04-17T03:00:45.992Z,5.83
2018-04-17T03:03:13.611Z,4.67
2018-04-17T03:05:41.217Z,4.47
2018-04-17T03:08:08.805Z,5.73
2018-04-17T03:10:36.429Z,4.60
2018-04-17T03:13:04.022Z,5.30
2018-04-17T03:15:31.608Z,5.10
2018-04-17T03:17:59.237Z,6.37
2018-04-17T03:20:26.837Z,5.10
2018-04-17T03:22:54.418Z,5.50
2018-04-17T03:25:22.112Z,5.70
2018-04-17T03:27:49.713Z,5.80
2018-04-17T03:30:17.297Z,5.13
2018-04-17T03:32:44.912Z,5.43
2018-04-17T03:35:12.535Z,4.93
2018-04-17T03:37:40.134Z,6.57
2018-04-17T03:40:07.763Z,7.57
2018-04-17T03:42:35.345Z,7.07
2018-04-17T03:45:02.940Z,7.40
2018-04-17T03:47:30.614Z,6.53
2018-04-17T03:49:58.200Z,7.83
2018-04-17T03:52:25.787Z,6.80
2018-04-17T03:54:53.408Z,7.43
2018-04-17T03:57:20.991Z,7.13
2018-04-17T03:59:48.572Z,7.43
2018-04-17T04:02:16.198Z,6.10
2018-04-17T04:04:43.785Z,7.20
2018-04-17T04:07:11.369Z,4.53
2018-04-17T04:09:39.001Z,4.70
2018-04-17T04:12:06.583Z,5.97
2018-04-17T04:14:34.160Z,4.73
2018-04-17T04:17:13.641Z,5.97
2018-04-17T04:19:52.867Z,6.40
2018-04-17T04:22:32.169Z,7.10
2018-04-17T04:25:16.419Z,4.90
2018-04-17T04:27:44.091Z,4.27
2018-04-17T04:30:11.676Z,4.80
2018-04-17T04:32:39.304Z,8.20
2018-04-17T04:35:06.944Z,5.93
2018-04-17T04:37:34.526Z,8.00
2018-04-17T04:40:02.120Z,7.50
2018-04-17T04:42:29.740Z,6.93
2018-04-17T04:44:57.331Z,8.80
2018-04-17T04:47:24.916Z,8.80
2018-04-17T04:49:52.549Z,9.40
2018-04-17T04:52:20.138Z,9.40
2018-04-17T04:54:47.731Z,8.93
2018-04-17T04:57:15.360Z,8.17
2018-04-17T04:59:42.954Z,8.97
2018-04-17T05:02:10.549Z,8.30
2018-04-17T05:04:38.168Z,7.50
2018-04-17T05:07:05.758Z,8.00
2018-04-17T05:09:33.545Z,8.07
2018-04-17T05:12:01.216Z,9.03
2018-04-17T05:14:28.841Z,8.63
2018-04-17T05:16:56.546Z,7.73
2018-04-17T05:19:24.172Z,8.87
2018-04-17T05:21:51.869Z,8.03
2018-04-17T05:24:19.505Z,7.47
2018-04-17T05:26:47.185Z,8.93
2018-04-17T05:29:14.856Z,9.53
2018-04-17T05:31:42.520Z,7.87
2018-04-17T05:34:10.151Z,11.83
2018-04-17T05:36:37.828Z,12.20
2018-04-17T05:39:05.484Z,10.13
2018-04-17T05:41:33.168Z,10.17
2018-04-17T05:44:00.829Z,7.50
2018-04-17T05:46:28.482Z,9.57
2018-04-17T05:48:56.210Z,10.47
2018-04-17T05:51:23.998Z,11.70
2018-04-17T05:53:51.647Z,10.40
2018-04-17T05:56:19.375Z,10.63
2018-04-17T05:58:47.211Z,10.30
2018-04-17T06:01:15.142Z,9.50
2018-04-17T06:03:42.776Z,11.80
2018-04-17T06:06:10.393Z,10.83
2018-04-17T06:08:38.055Z,14.37
2018-04-17T06:11:05.907Z,9.10
2018-04-17T06:13:33.581Z,9.20
2018-04-17T06:16:01.259Z,9.87
2018-04-17T06:18:29.087Z,8.37
2018-04-17T06:20:56.791Z,9.23
2018-04-17T06:23:24.451Z,9.83
2018-04-17T06:25:52.135Z,9.90
2018-04-17T06:28:19.746Z,10.27
2018-04-17T06:30:47.438Z,8.60
2018-04-17T06:33:15.095Z,8.67
2018-04-17T06:35:42.755Z,10.63
2018-04-17T06:38:10.595Z,10.40
2018-04-17T06:40:38.281Z,8.03
2018-04-17T06:43:06.008Z,9.00
2018-04-17T06:45:34.025Z,9.10
2018-04-17T06:48:01.686Z,8.60
2018-04-17T06:50:29.342Z,9.70
2018-04-17T06:52:57.000Z,8.67
2018-04-17T06:55:24.629Z,8.03
2018-04-17T06:57:52.253Z,7.50
2018-04-17T07:00:19.990Z,5.87
2018-04-17T07:02:47.659Z,7.13
2018-04-17T07:05:15.339Z,6.43
2018-04-17T07:07:43.051Z,7.80
2018-04-17T07:10:11.038Z,6.87
2018-04-17T07:12:38.632Z,7.80
2018-04-17T07:15:06.230Z,6.60
2018-04-17T07:17:34.067Z,7.00
2018-04-17T07:20:01.696Z,7.77
2018-04-17T07:22:29.422Z,8.17
2018-04-17T07:24:57.234Z,6.87
2018-04-17T07:27:24.928Z,8.23
2018-04-17T07:29:52.548Z,8.70
2018-04-17T07:32:20.177Z,8.50
2018-04-17T07:34:48.090Z,11.93
2018-04-17T07:37:15.808Z,9.03
2018-04-17T07:39:43.824Z,9.37
2018-04-17T07:42:11.487Z,8.07
2018-04-17T07:44:39.147Z,8.07
2018-04-17T07:47:31.643Z,7.00
2018-04-17T07:49:59.240Z,6.60
2018-04-17T07:52:27.048Z,7.90
2018-04-17T07:54:54.784Z,7.30
2018-04-17T07:57:22.438Z,7.27
2018-04-17T07:59:50.114Z,6.97
2018-04-17T08:02:17.944Z,5.97
2018-04-17T08:04:45.541Z,7.43
2018-04-17T08:07:13.304Z,6.00
2018-04-17T08:09:40.930Z,4.73
2018-04-17T08:12:08.521Z,6.10
2018-04-17T08:14:36.285Z,6.73
2018-04-17T08:17:03.933Z,5.80
2018-04-17T08:19:31.517Z,7.23
2018-04-17T08:21:59.099Z,6.17
2018-04-17T08:24:26.932Z,6.93
2018-04-17T08:26:54.590Z,6.90
2018-04-17T08:29:22.255Z,5.53
2018-04-17T08:31:49.894Z,5.47
2018-04-17T08:34:17.461Z,6.17
2018-04-17T08:36:45.240Z,6.40
2018-04-17T08:39:12.875Z,8.30
2018-04-17T08:41:40.567Z,5.47
2018-04-17T08:44:08.209Z,7.33
2018-04-17T08:46:35.885Z,8.20
2018-04-17T08:49:03.564Z,6.67
2018-04-17T08:51:31.215Z,6.07
2018-04-17T08:53:58.877Z,7.13
2018-04-17T08:56:26.720Z,7.73
2018-04-17T08:58:54.588Z,8.80
2018-04-17T09:01:22.220Z,8.90
2018-04-17T09:03:49.932Z,8.73
2018-04-17T09:06:17.604Z,8.77
2018-04-17T09:08:45.252Z,9.27
2018-04-17T09:11:12.926Z,10.03
2018-04-17T09:13:40.639Z,11.03
2018-04-17T09:16:08.447Z,9.20
2018-04-17T09:18:36.119Z,7.90
2018-04-17T09:21:03.840Z,9.70
2018-04-17T09:23:31.556Z,7.60
2018-04-17T09:25:59.307Z,8.93
2018-04-17T09:28:26.976Z,9.00
2018-04-17T09:30:54.635Z,8.83
2018-04-17T09:33:22.226Z,8.90
2018-04-17T09:35:49.830Z,9.70
2018-04-17T09:38:17.612Z,8.30
2018-04-17T09:40:45.193Z,7.93
2018-04-17T09:43:13.155Z,9.10
2018-04-17T09:45:40.803Z,8.23
2018-04-17T09:48:08.473Z,7.30
2018-04-17T09:50:36.149Z,8.20
2018-04-17T09:53:03.786Z,8.33
2018-04-17T09:55:31.448Z,8.20
2018-04-17T09:57:59.132Z,9.90
2018-04-17T10:00:26.801Z,8.07
2018-04-17T10:02:54.387Z,9.20
2018-04-17T10:05:22.111Z,10.40
2018-04-17T10:07:49.748Z,9.20
2018-04-17T10:10:17.476Z,9.90
2018-04-17T10:12:45.098Z,9.80
2018-04-17T10:15:12.966Z,9.33
2018-04-17T10:17:40.805Z,7.97
2018-04-17T10:20:08.393Z,8.63
2018-04-17T10:22:36.040Z,9.00
2018-04-17T10:25:03.701Z,10.73
2018-04-17T10:27:31.315Z,14.30
2018-04-17T10:29:58.956Z,9.30
2018-04-17T10:32:26.556Z,9.70
2018-04-17T10:34:54.147Z,9.00
2018-04-17T10:37:21.785Z,10.60
2018-04-17T10:39:49.412Z,11.00
2018-04-17T10:42:17.009Z,11.23
2018-04-17T10:44:44.707Z,9.10
2018-04-17T10:47:12.300Z,8.50
2018-04-17T10:49:39.932Z,7.87
2018-04-17T10:52:07.605Z,7.33
2018-04-17T10:54:35.190Z,8.13
2018-04-17T10:57:02.796Z,14.40
2018-04-17T10:59:30.414Z,8.70
2018-04-17T11:01:58.009Z,9.00
2018-04-17T11:04:25.632Z,7.93
2018-04-17T11:06:53.259Z,9.13
2018-04-17T11:09:20.853Z,9.43
2018-04-17T11:11:48.453Z,6.77
2018-04-17T11:14:16.122Z,7.20
2018-04-17T11:16:43.727Z,6.47
2018-04-17T11:19:11.308Z,6.57
2018-04-17T11:21:39.034Z,6.53
2018-04-17T11:24:06.628Z,6.13
2018-04-17T11:26:34.216Z,6.17
2018-04-17T11:29:01.860Z,6.03
2018-04-17T11:31:29.467Z,5.70
2018-04-17T11:33:57.061Z,6.43
2018-04-17T11:36:24.688Z,5.93
2018-04-17T11:38:52.305Z,5.30
2018-04-17T11:41:19.902Z,5.43
2018-04-17T11:43:47.530Z,5.27
2018-04-17T11:46:15.126Z,6.50
2018-04-17T11:48:42.748Z,5.17
2018-04-17T11:51:10.422Z,5.17
2018-04-17T11:53:38.053Z,5.93
2018-04-17T11:56:05.645Z,5.50
2018-04-17T11:58:33.285Z,6.43
2018-04-17T12:01:00.876Z,6.60
2018-04-17T12:03:28.464Z,6.93
2018-04-17T12:05:56.085Z,6.90
2018-04-17T12:08:23.675Z,5.57
2018-04-17T12:10:51.296Z,4.90
2018-04-17T12:13:18.961Z,5.53
2018-04-17T12:15:46.553Z,6.17
2018-04-17T12:18:14.129Z,5.90
2018-04-17T12:20:41.734Z,4.73
2018-04-17T12:23:09.320Z,5.80
2018-04-17T12:25:36.905Z,6.10
2018-04-17T12:28:04.533Z,4.93
2018-04-17T12:30:32.109Z,5.07
2018-04-17T12:32:59.696Z,6.37
2018-04-17T12:35:27.326Z,5.50
2018-04-17T12:37:54.914Z,5.40
2018-04-17T12:40:22.508Z,6.27
2018-04-17T12:42:50.152Z,8.57
2018-04-17T12:45:17.749Z,6.93
2018-04-17T12:47:45.354Z,6.20
2018-04-17T12:50:12.990Z,4.90
2018-04-17T12:52:40.777Z,5.20
2018-04-17T12:55:08.557Z,5.60
2018-04-17T12:57:36.224Z,5.20
2018-04-17T13:00:03.885Z,5.63
2018-04-17T13:02:31.481Z,7.20
2018-04-17T13:04:59.120Z,4.90
2018-04-17T13:07:26.724Z,5.80
2018-04-17T13:09:54.319Z,5.80
2018-04-17T13:12:21.941Z,6.60
2018-04-17T13:14:49.853Z,6.27
2018-04-17T13:17:17.505Z,5.73
2018-04-17T13:19:45.127Z,5.73
2018-04-17T13:22:19.533Z,5.03
2018-04-17T13:24:47.258Z,6.17
2018-04-17T13:27:14.905Z,5.90
2018-04-17T13:29:42.574Z,6.07
2018-04-17T13:32:10.363Z,5.50
2018-04-17T13:34:37.952Z,5.10
2018-04-17T13:37:05.553Z,7.97
2018-04-17T13:39:33.181Z,6.27
2018-04-17T13:42:01.064Z,6.97
2018-04-17T13:44:29.305Z,5.97
2018-04-17T13:46:56.986Z,6.33
2018-04-17T13:49:24.603Z,5.63
2018-04-17T13:51:52.797Z,5.50
2018-04-17T13:54:20.446Z,6.07
2018-04-17T13:56:48.025Z,5.33
2018-04-17T13:59:15.635Z,7.70
2018-04-17T14:01:43.271Z,7.80
2018-04-17T14:04:10.884Z,6.07
2018-04-17T14:06:38.530Z,10.40
2018-04-17T14:09:07.015Z,5.20
2018-04-17T14:11:34.617Z,5.90
2018-04-17T14:14:02.196Z,5.33
2018-04-17T14:16:29.821Z,6.03
2018-04-17T14:18:57.399Z,5.87
2018-04-17T14:21:25.050Z,5.07
2018-04-17T14:23:52.710Z,6.57
2018-04-17T14:26:20.318Z,8.00
2018-04-17T14:28:47.932Z,7.37
2018-04-17T14:31:15.582Z,8.23
2018-04-17T14:33:43.182Z,5.30
2018-04-17T14:36:10.783Z,6.27
2018-04-17T14:38:38.463Z,5.50
2018-04-17T14:41:06.065Z,5.20
2018-04-17T14:43:33.736Z,5.67
2018-04-17T14:46:01.452Z,6.10
2018-04-17T14:48:29.068Z,5.50
2018-04-17T14:50:56.742Z,6.27
2018-04-17T14:53:24.414Z,5.93
2018-04-17T14:55:51.998Z,7.30
2018-04-17T14:58:19.608Z,6.17
2018-04-17T15:00:47.239Z,12.00
2018-04-17T15:03:14.848Z,8.00
2018-04-17T15:05:42.458Z,6.20
2018-04-17T15:08:10.129Z,7.23
2018-04-17T15:10:37.736Z,5.60
2018-04-17T15:13:05.360Z,5.10
2018-04-17T15:15:33.081Z,5.80
2018-04-17T15:18:01.814Z,5.10
2018-04-17T15:20:29.498Z,6.40
2018-04-17T15:22:57.141Z,6.27
2018-04-17T15:25:24.741Z,6.07
2018-04-17T15:27:52.331Z,4.83
2018-04-17T15:30:19.998Z,6.20
2018-04-17T15:32:47.601Z,6.50
2018-04-17T15:35:15.237Z,7.53
2018-04-17T15:37:42.885Z,10.77
2018-04-17T15:40:10.552Z,6.00
2018-04-17T15:42:38.157Z,23.37
2018-04-17T15:45:05.823Z,10.20
2018-04-17T15:47:33.455Z,5.67
2018-04-17T15:50:01.065Z,5.73
2018-04-17T15:52:28.966Z,7.90
2018-04-17T15:54:56.578Z,8.17
2018-04-17T15:57:24.178Z,7.17
2018-04-17T15:59:51.845Z,7.23
2018-04-17T16:02:19.424Z,5.50
2018-04-17T16:04:48.737Z,6.40
2018-04-17T16:07:18.802Z,6.40
2018-04-17T16:09:48.792Z,5.50
2018-04-17T16:12:16.692Z,6.77
2018-04-17T16:14:44.382Z,6.20
2018-04-17T16:17:12.221Z,5.73
2018-04-17T16:19:39.844Z,6.47
2018-04-17T16:22:07.540Z,6.83
2018-04-17T16:24:35.409Z,6.83
2018-04-17T16:27:03.096Z,7.70
2018-04-17T16:29:31.146Z,7.40
2018-04-17T16:31:58.737Z,6.07
2018-04-17T16:34:26.677Z,9.90
2018-04-17T16:36:54.517Z,9.00
2018-04-17T16:39:22.206Z,36.80
2018-04-17T16:41:49.869Z,15.50
2018-04-17T16:44:17.687Z,18.93
2018-04-17T16:46:45.317Z,18.70
2018-04-17T16:49:13.045Z,13.37
2018-04-17T16:51:40.730Z,16.83
2018-04-17T16:54:08.462Z,7.27
2018-04-17T16:56:36.457Z,19.00
2018-04-17T16:59:04.316Z,12.10
2018-04-17T17:01:32.119Z,53.03
2018-04-17T17:03:59.869Z,15.03
2018-04-17T17:06:27.514Z,35.27
2018-04-17T17:08:55.237Z,21.03
2018-04-17T17:11:22.818Z,28.53
2018-04-17T17:13:50.460Z,39.30
2018-04-17T17:16:18.147Z,24.27
2018-04-17T17:18:45.829Z,27.87
2018-04-17T17:21:13.458Z,27.03
2018-04-17T17:23:41.146Z,30.53
2018-04-17T17:26:08.801Z,15.13
2018-04-17T17:28:36.417Z,18.67
2018-04-17T17:31:04.338Z,16.97
2018-04-17T17:33:32.112Z,7.67
2018-04-17T17:35:59.763Z,14.53
2018-04-17T17:38:27.517Z,12.50
2018-04-17T17:40:55.625Z,10.47
2018-04-17T17:43:23.306Z,12.00
2018-04-17T17:45:51.541Z,9.10
2018-04-17T17:48:19.284Z,11.93
2018-04-17T17:50:47.044Z,9.67
2018-04-17T17:53:14.763Z,12.07
2018-04-17T17:55:42.395Z,10.50
2018-04-17T17:58:10.033Z,10.70
2018-04-17T18:00:37.706Z,8.37
2018-04-17T18:03:05.389Z,7.43
2018-04-17T18:05:33.249Z,9.13
2018-04-17T18:08:00.858Z,12.53
2018-04-17T18:10:28.483Z,10.27
2018-04-17T18:12:56.102Z,9.87
2018-04-17T18:15:23.954Z,11.80
2018-04-17T18:17:51.614Z,12.30
2018-04-17T18:20:19.245Z,11.77
2018-04-17T18:22:46.983Z,11.47
2018-04-17T18:25:14.644Z,9.77
2018-04-17T18:27:42.266Z,10.40
2018-04-17T18:30:10.055Z,10.73
2018-04-17T18:32:37.646Z,10.30
2018-04-17T18:35:05.265Z,8.70
2018-04-17T18:37:32.944Z,8.67
2018-04-17T18:40:00.532Z,9.37
2018-04-17T18:42:28.171Z,9.70
2018-04-17T18:44:56.124Z,8.70
2018-04-17T18:47:23.970Z,9.57
2018-04-17T18:49:51.602Z,10.60
2018-04-17T18:52:19.198Z,10.70
2018-04-17T18:54:46.807Z,9.17
2018-04-17T18:57:14.441Z,10.30
2018-04-17T18:59:42.016Z,9.13
2018-04-17T19:02:09.611Z,10.20
2018-04-17T19:04:37.437Z,9.90
2018-04-17T19:07:05.070Z,8.87
2018-04-17T19:09:32.666Z,8.00
2018-04-17T19:12:00.340Z,9.13
2018-04-17T19:14:27.937Z,10.10
2018-04-17T19:16:55.547Z,9.80
2018-04-17T19:19:23.196Z,8.73
2018-04-17T19:21:50.832Z,8.40
2018-04-17T19:24:18.438Z,9.00
2018-04-17T19:26:46.070Z,8.57
2018-04-17T19:29:13.672Z,8.50
2018-04-17T19:31:41.272Z,9.23
2018-04-17T19:34:08.956Z,8.40
2018-04-17T19:36:36.541Z,8.80
2018-04-17T19:39:04.289Z,10.50
2018-04-17T19:41:31.926Z,10.67
2018-04-17T19:43:59.549Z,10.07
2018-04-17T19:46:27.247Z,8.87
2018-04-17T19:48:54.917Z,9.50
2018-04-17T19:51:22.502Z,9.50
2018-04-17T19:53:50.097Z,10.30
2018-04-17T19:56:17.741Z,8.13
2018-04-17T19:58:45.330Z,9.90
2018-04-17T20:01:12.937Z,9.87
2018-04-17T20:03:40.574Z,9.67
2018-04-17T20:06:09.094Z,10.07
2018-04-17T20:08:36.713Z,9.10
2018-04-17T20:11:04.426Z,7.83
2018-04-17T20:13:32.024Z,9.50
2018-04-17T20:15:59.628Z,9.60
2018-04-17T20:18:27.257Z,10.77
2018-04-17T20:20:54.883Z,9.40
2018-04-17T20:23:22.528Z,7.70
2018-04-17T20:25:50.162Z,10.13
2018-04-17T20:28:17.746Z,9.23
2018-04-17T20:30:45.398Z,9.47
2018-04-17T20:33:13.085Z,8.73
2018-04-17T20:35:40.680Z,11.30
2018-04-17T20:38:08.306Z,11.23
2018-04-17T20:40:35.917Z,9.20
2018-04-17T20:43:03.542Z,10.33
2018-04-17T20:45:31.145Z,9.00
2018-04-17T20:47:58.760Z,10.40
2018-04-17T20:50:26.381Z,10.20
2018-04-17T20:52:54.012Z,10.17
2018-04-17T20:55:21.674Z,8.63
2018-04-17T20:57:49.268Z,9.93
2018-04-17T21:00:16.912Z,8.53
2018-04-17T21:02:44.537Z,10.43
2018-04-17T21:05:12.141Z,9.97
2018-04-17T21:07:39.783Z,10.43
2018-04-17T21:10:07.434Z,9.23
2018-04-17T21:12:35.088Z,8.80
2018-04-17T21:15:02.678Z,10.00
2018-04-17T21:17:30.347Z,10.47
2018-04-17T21:19:57.929Z,9.33
2018-04-17T21:22:25.533Z,12.70
2018-04-17T21:24:53.192Z,11.43
2018-04-17T21:27:20.777Z,9.70
2018-04-17T21:29:48.391Z,11.13
2018-04-17T21:32:16.045Z,10.40
2018-04-17T21:34:43.655Z,10.20
2018-04-17T21:37:11.256Z,10.60
2018-04-17T21:39:38.941Z,10.97
2018-04-17T21:42:06.543Z,10.50
2018-04-17T21:44:34.145Z,10.70
2018-04-17T21:47:01.771Z,10.50
2018-04-17T21:49:29.428Z,9.60
2018-04-17T21:51:57.054Z,9.10
2018-04-17T21:54:24.693Z,10.07
2018-04-17T21:56:52.301Z,11.23
2018-04-17T21:59:19.945Z,12.53
2018-04-17T22:01:47.599Z,9.67
2018-04-17T22:04:15.216Z,11.40
2018-04-17T22:06:42.815Z,10.57
2018-04-17T22:09:11.376Z,11.90
2018-04-17T22:11:39.008Z,11.17
2018-04-17T22:14:06.640Z,11.47
2018-04-17T22:16:34.272Z,11.33
2018-04-17T22:19:01.861Z,10.10
2018-04-17T22:21:29.505Z,10.93
2018-04-17T22:23:57.241Z,11.50
2018-04-17T22:26:24.828Z,9.77
2018-04-17T22:28:52.420Z,10.00
2018-04-17T22:31:20.052Z,10.50
2018-04-17T22:33:47.674Z,10.97
2018-04-17T22:36:15.293Z,12.07
2018-04-17T22:38:42.947Z,12.70
2018-04-17T22:41:10.551Z,10.93
2018-04-17T22:43:38.198Z,11.07
2018-04-17T22:46:05.880Z,12.20
2018-04-17T22:48:33.511Z,10.13
2018-04-17T22:51:01.189Z,10.07
2018-04-17T22:53:28.863Z,10.57
2018-04-17T22:55:56.503Z,10.93
2018-04-17T22:58:24.152Z,11.53
2018-04-17T23:00:51.796Z,10.97
2018-04-17T23:03:19.388Z,11.70
2018-04-17T23:05:47.003Z,10.00
2018-04-17T23:08:14.630Z,9.90
2018-04-17T23:10:42.239Z,10.07
2018-04-17T23:13:09.854Z,12.00
2018-04-17T23:15:37.501Z,10.17
2018-04-17T23:18:05.100Z,11.53
2018-04-17T23:20:32.766Z,11.50
2018-04-17T23:23:00.416Z,12.30
2018-04-17T23:25:28.024Z,10.77
2018-04-17T23:27:55.662Z,10.50
2018-04-17T23:30:23.303Z,11.30
2018-04-17T23:32:50.897Z,10.57
2018-04-17T23:35:18.546Z,11.47
2018-04-17T23:37:46.175Z,12.10
2018-04-17T23:40:13.782Z,13.40
2018-04-17T23:42:41.392Z,12.03
2018-04-17T23:45:09.021Z,11.13
2018-04-17T23:47:36.620Z,11.53
2018-04-17T23:50:04.233Z,11.70
2018-04-17T23:52:31.849Z,11.23
2018-04-17T23:54:59.439Z,11.67
2018-04-17T23:57:27.029Z,12.73
2018-04-17T23:59:54.774Z,11.37
